Harlem Springs, Ohio
Current Conditions -  °F | °C
As of 11:53 AM on Monday 22 Dec 2014 (Local Time) from KPHD Reporting Station
Haze Haze  
Wind Chill: 35°   Ceiling: 6000
Heat Index: 35°   Visibility: 6mi
Dew Point: 29°   Wind: 3mph
Humidity: 78%   Direction: 290°WNW
Pressure: 30.06"   Gusts: NA
Location:  40.52°N, 81°W
Report Text: KPHD 221653Z AUTO 29003KT 6SM HZ OVC060 02/M02 A3006 RMK AO2 SLP191 T00171017
Loading
Personal Weather Stations






























Interactive Weather Map New forecast layout! Learn more

10-Day Weather Forecast

Advertisements
Track Severe Weather on mobile